Terminal Aerodrome Forecast
Issued by NWS Duluth, MN

Home | Current Version | Previous Version | Text Only | Print | Product List | Glossary On
Versions: 1 2 3 4 5 6 7 8 9 10 11 12 13 14 15 16 17 18 19 20 21 22
482
FTUS43 KDLH 252335
TAFDLH
TAF
KDLH 252335Z 2600/2624 27013KT P6SM VCSH FEW029 BKN050
     FM260300 28008KT P6SM BKN045
     FM261000 30005KT P6SM SCT050
      TEMPO 2610/2612 4SM BR SCT008
     FM261200 VRB05KT P6SM FEW030=

USA.gov is the U.S. government's official web portal to all federal, state and local government web resources and services.